Home Latest Filings Latest Buys Latest Sells Institutions Derivatives Hot Buys Data Screener Email Alerts Insider Charts
KCI - As of  04/07/20, 05:59:25 PM:   161 Insider Transactions.

Sector:    Industry:
Prev Close:$0.00  Avg Vol(3m): 0  P/E: 0.00  EPS: 0.00

Email this page to a friend.    Institutional Transactions for KCI

                Buy: Blue    Sell: Red
Non-meaningful transactions (gifts, grants, etc.) are automatically filtered out for quicker actions.
Buy(P) /
Sell(S)
P/S date Filed Date Company Symbol Insider Relationship Share Amt. Unit Price Total Proceeds Shares Owned Return(1m) Details
S 2011-04-29 2011-05-04 18:22:06.0 KINETIC CONCEPTS INC KCI Seidel Stephen D officer (Global President,TSS) 9,000 $59.00 $531,000.00 20,959 -0.27% view
S 2011-03-30 2011-04-01 18:06:33.0 KINETIC CONCEPTS INC KCI Seidel Stephen D officer (Global President,TSS; GC) 25,000 $54.00 $1,350,000.00 21,460 -9.31% view
S 2011-02-22 2011-02-23 17:59:02.0 KINETIC CONCEPTS INC KCI Seidel Stephen D officer (Global President,TSS; GC) 21,188 $46.72 $989,903.00 21,460 -12.05% view
S 2011-01-10 2011-01-12 18:28:38.0 KINETIC CONCEPTS INC KCI Seidel Stephen D officer (Global President,TSS; GC) 546 $45.00 $24,570.00 23,085 -2.38% view
S 2010-12-31 2011-01-03 20:46:26.0 KINETIC CONCEPTS INC KCI LEININGER JAMES R MD director 10% owner 13,500 $41.96 $566,460.00 6,239,520 -9.94% view
S 2010-12-30 2011-01-03 20:46:26.0 KINETIC CONCEPTS INC KCI LEININGER JAMES R MD director 10% owner 5,600 $41.77 $233,912.00 6,253,020 -9.34% view
S 2010-12-29 2011-01-03 20:46:26.0 KINETIC CONCEPTS INC KCI LEININGER JAMES R MD director 10% owner 9,400 $41.73 $392,262.00 6,258,620 -9.44% view
S 2010-12-28 2010-12-28 20:19:49.0 KINETIC CONCEPTS INC KCI LEININGER JAMES R MD director 10% owner 5,000 $41.76 $208,800.00 6,268,020 -9.36% view
S 2010-12-27 2010-12-28 20:19:49.0 KINETIC CONCEPTS INC KCI LEININGER JAMES R MD director 10% owner 5,400 $41.84 $225,936.00 6,273,020 -11.74% view
S 2010-12-23 2010-12-28 20:19:49.0 KINETIC CONCEPTS INC KCI LEININGER JAMES R MD director 10% owner 7,200 $41.92 $301,824.00 6,278,420 -5.63% view
S 2010-12-22 2010-12-23 19:18:14.0 KINETIC CONCEPTS INC KCI LEININGER JAMES R MD director 10% owner 7,200 $41.79 $300,888.00 6,285,620 -5.96% view
S 2010-12-21 2010-12-23 19:18:14.0 KINETIC CONCEPTS INC KCI LEININGER JAMES R MD director 10% owner 7,476 $41.73 $311,973.00 6,292,820 -6.11% view
S 2010-12-20 2010-12-20 21:46:58.0 KINETIC CONCEPTS INC KCI LEININGER JAMES R MD director 10% owner 15,249 $41.51 $632,986.00 6,300,300 -7.68% view
S 2010-12-17 2010-12-20 21:46:58.0 KINETIC CONCEPTS INC KCI LEININGER JAMES R MD director 10% owner 22,475 $41.28 $927,768.00 6,315,550 -11.00% view
S 2010-12-16 2010-12-20 21:46:58.0 KINETIC CONCEPTS INC KCI LEININGER JAMES R MD director 10% owner 17,200 $41.59 $715,348.00 6,338,020 -10.17% view
S 2010-12-15 2010-12-15 19:51:47.0 KINETIC CONCEPTS INC KCI LEININGER JAMES R MD director 10% owner 11,152 $41.87 $466,934.00 6,355,220 -9.43% view
S 2010-12-14 2010-12-15 19:51:47.0 KINETIC CONCEPTS INC KCI LEININGER JAMES R MD director 10% owner 12,400 $41.82 $518,568.00 6,366,380 -9.56% view
S 2010-12-13 2010-12-15 19:51:47.0 KINETIC CONCEPTS INC KCI LEININGER JAMES R MD director 10% owner 17,631 $41.55 $732,568.00 6,378,780 -9.19% view
S 2010-12-10 2010-12-10 18:36:34.0 KINETIC CONCEPTS INC KCI LEININGER JAMES R MD director 10% owner 13,317 $41.22 $548,927.00 6,396,410 -10.19% view
S 2010-12-09 2010-12-10 18:36:34.0 KINETIC CONCEPTS INC KCI LEININGER JAMES R MD director 10% owner 9,485 $41.02 $389,075.00 6,409,720 -5.56% view
S 2010-12-08 2010-12-10 18:36:34.0 KINETIC CONCEPTS INC KCI LEININGER JAMES R MD director 10% owner 8,515 $41.04 $349,456.00 6,419,210 -5.51% view
S 2010-12-07 2010-12-07 18:54:29.0 KINETIC CONCEPTS INC KCI LEININGER JAMES R MD director 10% owner 17,200 $41.40 $712,080.00 6,427,720 -4.59% view
S 2010-12-06 2010-12-07 18:54:29.0 KINETIC CONCEPTS INC KCI LEININGER JAMES R MD director 10% owner 15,200 $41.32 $628,064.00 6,444,920 -3.39% view
S 2010-12-03 2010-12-07 18:54:29.0 KINETIC CONCEPTS INC KCI LEININGER JAMES R MD director 10% owner 26,200 $40.92 $1,072,100.00 6,460,120 -2.61% view
S 2010-12-02 2010-12-03 17:11:00.0 KINETIC CONCEPTS INC KCI LEININGER JAMES R MD director 10% owner 24,500 $40.44 $990,780.00 6,486,320 -3.56% view
S 2010-12-01 2010-12-03 17:11:00.0 KINETIC CONCEPTS INC KCI LEININGER JAMES R MD director 10% owner 20,600 $40.54 $835,124.00 6,510,820 -3.31% view
S 2010-11-22 2010-11-23 17:43:44.0 KINETIC CONCEPTS INC KCI LEININGER JAMES R MD director 10% owner 2,200 $40.06 $88,132.00 6,531,420 -4.39% view
S 2010-11-19 2010-11-23 17:43:44.0 KINETIC CONCEPTS INC KCI LEININGER JAMES R MD director 10% owner 3,600 $40.03 $144,108.00 6,533,620 -3.20% view
S 2010-11-15 2010-11-17 19:32:40.0 KINETIC CONCEPTS INC KCI LEININGER JAMES R MD director 10% owner 2,000 $40.00 $80,000.00 6,537,220 -4.20% view
S 2010-11-12 2010-11-12 17:10:46.0 KINETIC CONCEPTS INC KCI LEININGER JAMES R MD director 10% owner 6,010 $40.13 $241,181.00 6,539,220 -2.77% view
S 2010-11-11 2010-11-12 17:10:46.0 KINETIC CONCEPTS INC KCI LEININGER JAMES R MD director 10% owner 10,790 $40.21 $433,866.00 6,545,240 -2.56% view
S 2010-11-10 2010-11-12 17:10:46.0 KINETIC CONCEPTS INC KCI LEININGER JAMES R MD director 10% owner 1,000 $40.01 $40,010.00 6,556,020 -3.07% view
S 2010-11-09 2010-11-09 18:08:48.0 KINETIC CONCEPTS INC KCI LEININGER JAMES R MD director 10% owner 11,600 $40.25 $466,900.00 6,557,020 -2.19% view
S 2010-11-08 2010-11-09 18:08:48.0 KINETIC CONCEPTS INC KCI LEININGER JAMES R MD director 10% owner 11,200 $40.11 $449,232.00 6,568,620 -2.34% view
S 2010-11-05 2010-11-09 18:08:48.0 KINETIC CONCEPTS INC KCI LEININGER JAMES R MD director 10% owner 7,100 $40.12 $284,852.00 6,579,820 -2.72% view
S 2010-05-20 2010-05-24 18:40:41.0 KINETIC CONCEPTS INC KCI JACOBSON HARRY R director 5,000 $41.71 $208,550.00 38,213 1.58% view
S 2010-05-11 2010-05-13 17:11:11.0 KINETIC CONCEPTS INC KCI SMITH TOM director 5,000 $42.02 $210,100.00 29,024 4.33% view
S 2010-04-29 2010-05-03 18:34:11.0 KINETIC CONCEPTS INC KCI DOLLENS RONALD W director officer (Chairman of the Board) 5,000 $44.73 $223,650.00 82,619 7.44% view
S 2010-04-29 2010-05-03 18:33:39.0 KINETIC CONCEPTS INC KCI BYRNES JOHN P director 5,000 $44.61 $223,050.00 90,604 7.20% view
S 2010-03-10 2010-03-12 20:43:17.0 KINETIC CONCEPTS INC KCI Seidel Stephen D officer (Global President,TSS; GC) 21,188 $52.50 $1,112,370.00 25,306 7.30% view
S 2010-02-01 2010-02-03 18:16:41.0 KINETIC CONCEPTS INC KCI LANDON MARTIN J officer (Exec Vice President and CFO) 36,000 $41.18 $1,482,480.00 100,759 -3.35% view
S 2009-11-20 2009-11-24 17:27:16.0 KINETIC CONCEPTS INC KCI LANDON MARTIN J officer (Exec Vice President and CFO) 35,000 $33.13 $1,159,550.00 86,759 -11.53% view
S 2009-10-26 2009-10-28 18:20:16.0 KINETIC CONCEPTS INC KCI STEEN DONALD E director 5,000 $34.26 $171,300.00 56,358 0.18% view
S 2009-09-09 2009-09-11 16:16:07.0 KINETIC CONCEPTS INC KCI LANDON MARTIN J officer (Exec Vice President and CFO) 20,000 $35.00 $700,000.00 61,759 -7.71% view
S 2009-07-22 2009-07-24 16:10:42.0 KINETIC CONCEPTS INC /TX/ KCI LANDON MARTIN J officer (Exec Vice President and CFO) 20,000 $30.00 $600,000.00 61,759 -12.37% view
S 2009-06-02 2009-06-04 18:39:42.0 KINETIC CONCEPTS INC /TX/ KCI LANDON MARTIN J officer (Exec Vice President and CFO) 10,000 $27.00 $270,000.00 61,759 1.63% view
P 2009-05-26 2009-05-28 18:47:28.0 KINETIC CONCEPTS INC /TX/ KCI Kohrt Carl F director 828 $25.67 $21,254.80 828 12.12% view
S 2009-04-30 2009-05-01 16:24:01.0 KINETIC CONCEPTS INC /TX/ KCI LANDON MARTIN J officer (Exec Vice President and CFO) 20,000 $24.28 $485,600.00 61,759 -6.80% view
P 2009-10-30 2008-10-30 15:53:42.0 KINETIC CONCEPTS INC /TX/ KCI Grossman Woodrin director 1,000 $23.87 $23,870.00 9,880 41.22% view
P 2008-10-29 2008-10-30 15:53:42.0 KINETIC CONCEPTS INC /TX/ KCI Grossman Woodrin director 1,000 $23.60 $23,600.00 8,880 -8.31% view
P 2008-10-24 2008-10-27 12:47:13.0 KINETIC CONCEPTS INC /TX/ KCI STEEN DONALD E director 10,000 $20.12 $201,200.00 52,386 3.38% view
P 2008-10-24 2008-10-27 12:46:36.0 KINETIC CONCEPTS INC /TX/ KCI DOLLENS RONALD W director officer (Chairman of the Board) 24,675 $20.21 $498,682.00 74,674 2.92% view
P 2008-10-24 2008-10-27 12:46:04.0 KINETIC CONCEPTS INC /TX/ KCI BURZIK CATHERINE M CEO 20,000 $20.10 $402,000.00 151,067 3.48% view
P 2008-07-29 2008-07-29 18:32:57.0 KINETIC CONCEPTS INC /TX/ KCI Sly Lynne officer (Pres., Global Thera. Sup. Sys.) 1,875 $36.99 $69,356.20 23,447 -4.95% view
S 2008-04-07 2008-04-09 18:47:51.0 KINETIC CONCEPTS INC /TX/ KCI BURZIK CATHERINE M director officer (President and CEO) 10,000 $50.00 $500,000.00 130,883 23.60% view
S 2008-01-02 2008-01-02 19:09:32.0 KINETIC CONCEPTS INC /TX/ KCI BURZIK CATHERINE M director officer (President and CEO) 10,000 $52.42 $524,200.00 108,800 1.53% view
S 2007-12-28 2008-01-02 19:09:32.0 KINETIC CONCEPTS INC /TX/ KCI BURZIK CATHERINE M director officer (President and CEO) 10,000 $53.82 $538,200.00 108,800 9.44% view
S 2007-11-30 2007-12-04 18:18:06.0 KINETIC CONCEPTS INC /TX/ KCI LEININGER JAMES R MD director 10% owner 32,000 $58.37 $1,867,840.00 5,512,940 7.13% view
S 2007-11-29 2007-11-29 17:29:44.0 KINETIC CONCEPTS INC /TX/ KCI LEININGER JAMES R MD director 10% owner 68,000 $58.93 $4,007,240.00 5,544,940 8.01% view
S 2007-11-28 2007-11-29 17:29:44.0 KINETIC CONCEPTS INC /TX/ KCI LEININGER JAMES R MD director 10% owner 200,000 $59.49 $1.1898E7 5,612,940 8.88% view
S 2007-11-27 2007-11-29 17:29:44.0 KINETIC CONCEPTS INC /TX/ KCI LEININGER JAMES R MD director 10% owner 150,000 $59.27 $8,890,500.00 5,812,940 8.35% view
S 2007-11-21 2007-11-26 17:11:20.0 KINETIC CONCEPTS INC /TX/ KCI LEININGER JAMES R MD director 10% owner 52,300 $59.02 $3,086,750.00 5,962,940 8.08% view
S 2007-11-19 2007-11-20 18:07:15.0 KINETIC CONCEPTS INC /TX/ KCI LEININGER JAMES R MD director 10% owner 400 $60.00 $24,000.00 6,015,240 11.17% view
S 2007-11-16 2007-11-20 18:07:15.0 KINETIC CONCEPTS INC /TX/ KCI LEININGER JAMES R MD director 10% owner 2,800 $60.00 $168,000.00 6,015,640 13.75% view
S 2007-11-15 2007-11-15 17:31:46.0 KINETIC CONCEPTS INC /TX/ KCI LEININGER JAMES R MD director 10% owner 50,400 $60.13 $3,030,550.00 6,018,440 13.94% view
S 2007-11-14 2007-11-15 17:31:46.0 KINETIC CONCEPTS INC /TX/ KCI LEININGER JAMES R MD director 10% owner 100,000 $60.28 $6,028,000.00 6,068,840 14.15% view
S 2007-11-13 2007-11-15 17:31:46.0 KINETIC CONCEPTS INC /TX/ KCI LEININGER JAMES R MD director 10% owner 75,000 $60.03 $4,502,250.00 6,168,840 7.50% view
S 2007-11-06 2007-11-08 19:13:56.0 KINETIC CONCEPTS INC /TX/ KCI Seidel Stephen D officer (V.P., Gen. Counsel and Sec.) 272 $61.50 $16,728.00 21,706 8.88% view
S 2007-11-06 2007-11-08 19:13:56.0 KINETIC CONCEPTS INC /TX/ KCI Seidel Stephen D officer (V.P., Gen. Counsel and Sec.) 5,000 $61.50 $307,500.00 21,978 8.88% view
S 2007-11-06 2007-11-06 18:58:00.0 KINETIC CONCEPTS INC /TX/ KCI LEININGER JAMES R MD director 10% owner 100,000 $61.87 $6,187,000.00 6,382,140 9.42% view
S 2007-11-05 2007-11-06 18:58:00.0 KINETIC CONCEPTS INC /TX/ KCI LEININGER JAMES R MD director 10% owner 150,000 $61.20 $9,180,000.00 6,482,140 7.61% view
S 2007-11-02 2007-11-06 18:58:00.0 KINETIC CONCEPTS INC /TX/ KCI LEININGER JAMES R MD director 10% owner 100,000 $60.76 $6,076,000.00 6,632,140 3.49% view
S 2007-10-31 2007-10-31 19:20:35.0 KINETIC CONCEPTS INC /TX/ KCI LEININGER JAMES R MD director 10% owner 33,400 $60.03 $2,005,000.00 6,732,140 2.32% view
S 2007-10-29 2007-10-31 19:20:35.0 KINETIC CONCEPTS INC /TX/ KCI LEININGER JAMES R MD director 10% owner 32,400 $60.70 $1,966,680.00 6,765,540 3.13% view
S 2007-10-05 2007-10-10 18:13:36.0 KINETIC CONCEPTS INC /TX/ KCI Seidel Stephen D officer (V.P., Gen. Counsel and Sec.) 5,485 $61.17 $335,517.00 22,419 -0.54% view
S 2007-10-04 2007-10-09 18:33:10.0 KINETIC CONCEPTS INC /TX/ KCI LANDON MARTIN J officer (Senior Vice President and CFO) 10,000 $60.00 $600,000.00 55,071 -1.10% view
S 2007-09-28 2007-10-02 17:16:45.0 KINETIC CONCEPTS INC /TX/ KCI LANDON MARTIN J officer (Senior Vice President and CFO) 10,000 $56.14 $561,400.00 55,071 -8.03% view
S 2007-09-17 2007-09-19 19:11:52.0 KINETIC CONCEPTS INC /TX/ KCI Sly Lynne officer (President, Thera. Surfaces) 5,000 $58.10 $290,500.00 16,778 -8.47% view
S 2007-09-17 2007-09-19 19:07:35.0 KINETIC CONCEPTS INC /TX/ KCI Seidel Stephen D officer (V.P., Gen. Counsel and Sec.) 668 $58.10 $38,810.80 22,419 -8.47% view
S 2007-09-17 2007-09-19 19:07:35.0 KINETIC CONCEPTS INC /TX/ KCI Seidel Stephen D officer (V.P., Gen. Counsel and Sec.) 3,000 $59.01 $177,030.00 23,087 -6.80% view
S 2007-08-31 2007-09-05 16:34:57.0 KINETIC CONCEPTS INC /TX/ KCI LEININGER JAMES R MD director 10% owner 61,578 $59.81 $3,682,980.00 6,797,940 5.90% view
S 2007-08-30 2007-08-30 17:20:35.0 KINETIC CONCEPTS INC /TX/ KCI LEININGER JAMES R MD director 10% owner 18,800 $59.26 $1,114,090.00 6,859,520 5.03% view
S 2007-08-29 2007-08-30 17:20:35.0 KINETIC CONCEPTS INC /TX/ KCI LEININGER JAMES R MD director 10% owner 50,000 $60.09 $3,004,500.00 6,878,320 6.34% view
S 2007-08-28 2007-08-30 17:20:35.0 KINETIC CONCEPTS INC /TX/ KCI LEININGER JAMES R MD director 10% owner 8,400 $61.19 $513,996.00 6,928,320 8.02% view
S 2007-08-27 2007-08-27 19:05:01.0 KINETIC CONCEPTS INC /TX/ KCI LEININGER JAMES R MD director 10% owner 25,000 $62.50 $1,562,500.00 6,936,720 8.85% view
S 2007-08-24 2007-08-27 19:05:01.0 KINETIC CONCEPTS INC /TX/ KCI LEININGER JAMES R MD director 10% owner 25,000 $61.52 $1,538,000.00 6,961,720 7.77% view
S 2007-08-23 2007-08-27 19:05:01.0 KINETIC CONCEPTS INC /TX/ KCI LEININGER JAMES R MD director 10% owner 50,000 $61.60 $3,080,000.00 6,986,720 7.40% view
S 2007-08-03 2007-08-06 17:56:18.0 KINETIC CONCEPTS INC /TX/ KCI LEININGER JAMES R MD director 10% owner 16,422 $61.01 $1,001,910.00 7,036,720 1.48% view
S 2007-08-02 2007-08-06 17:56:18.0 KINETIC CONCEPTS INC /TX/ KCI LEININGER JAMES R MD director 10% owner 25,000 $61.19 $1,529,750.00 7,053,140 1.76% view
S 2007-08-01 2007-08-01 19:11:15.0 KINETIC CONCEPTS INC /TX/ KCI LEININGER JAMES R MD director 10% owner 25,000 $62.14 $1,553,500.00 7,078,140 3.27% view
S 2007-07-31 2007-08-01 19:11:15.0 KINETIC CONCEPTS INC /TX/ KCI LEININGER JAMES R MD director 10% owner 16,300 $63.44 $1,034,070.00 7,103,140 5.25% view
S 2007-07-30 2007-08-01 19:11:15.0 KINETIC CONCEPTS INC /TX/ KCI LEININGER JAMES R MD director 10% owner 25,000 $62.57 $1,564,250.00 7,119,440 5.43% view
S 2007-07-25 2007-07-26 17:19:45.0 KINETIC CONCEPTS INC /TX/ KCI LEININGER JAMES R MD director 10% owner 69,200 $63.01 $4,360,290.00 7,144,440 0.16% view
S 2007-07-24 2007-07-26 17:19:45.0 KINETIC CONCEPTS INC /TX/ KCI LEININGER JAMES R MD director 10% owner 84,300 $64.04 $5,398,570.00 7,213,640 1.76% view
S 2007-05-25 2007-05-30 17:51:20.0 KINETIC CONCEPTS INC /TX/ KCI LEININGER JAMES R MD director 10% owner 406,339 $49.22 $2.0E7 7,297,940 -1.91% view
S 2007-05-21 2007-05-23 17:56:57.0 KINETIC CONCEPTS INC /TX/ KCI LANDON MARTIN J officer (Senior Vice President and CFO) 50,000 $49.18 $2,459,000.00 55,649 -2.26% view
S 2007-05-10 2007-05-11 17:37:01.0 KINETIC CONCEPTS INC /TX/ KCI LEININGER JAMES R MD director 10% owner 123,900 $49.04 $6,076,060.00 7,702,460 -1.96% view
S 2007-05-09 2007-05-11 17:37:01.0 KINETIC CONCEPTS INC /TX/ KCI LEININGER JAMES R MD director 10% owner 94,800 $49.70 $4,711,560.00 7,826,360 -0.60% view
S 2007-04-09 2007-04-11 17:39:51.0 KINETIC CONCEPTS INC /TX/ KCI DOLLENS RONALD W director officer (Chairman of the Board) 40,000 $54.72 $2,188,800.00 41,437 9.17% view
S 2007-02-28 2007-03-02 16:50:21.0 KINETIC CONCEPTS INC /TX/ KCI LANDON MARTIN J officer (Senior Vice President and CFO) 200 $49.75 $9,950.00 600 -0.06% view
S 2007-02-23 2007-02-23 15:29:18.0 KINETIC CONCEPTS INC /TX/ KCI LEININGER JAMES R MD director 10% owner 14,600 $50.60 $738,760.00 8,063,160 1.68% view
S 2007-02-22 2007-02-23 15:29:18.0 KINETIC CONCEPTS INC /TX/ KCI LEININGER JAMES R MD director 10% owner 10,900 $51.03 $556,227.00 8,077,760 1.00% view
S 2007-02-21 2007-02-23 15:29:18.0 KINETIC CONCEPTS INC /TX/ KCI LEININGER JAMES R MD director 10% owner 138,300 $51.03 $7,057,450.00 8,088,660 1.08% view
S 2007-02-14 2007-02-16 16:03:30.0 KINETIC CONCEPTS INC /TX/ KCI LEININGER JAMES R MD director 10% owner 36,200 $51.00 $1,846,200.00 8,226,960 3.31% view
S 2007-02-05 2007-02-07 21:14:37.0 KINETIC CONCEPTS INC /TX/ KCI FASHEK CHRISTOPHER M officer (Vice Chairman, KCI USA) 94,364 $49.51 $4,671,960.00 53,759 -0.61% view
S 2007-02-05 2007-02-07 20:40:23.0 KINETIC CONCEPTS INC /TX/ KCI LANDON MARTIN J officer (Senior Vice President and CFO) 30,000 $49.11 $1,473,300.00 51,803 -1.43% view
S 2007-02-05 2007-02-06 18:55:43.0 KINETIC CONCEPTS INC /TX/ KCI LEININGER JAMES R MD director 10% owner 120,900 $49.20 $5,948,280.00 8,263,160 -1.24% view
S 2007-02-02 2007-02-06 18:55:43.0 KINETIC CONCEPTS INC /TX/ KCI LEININGER JAMES R MD director 10% owner 79,100 $48.78 $3,858,500.00 8,384,060 -1.89% view
S 2006-12-04 2006-12-06 18:19:34.0 KINETIC CONCEPTS INC /TX/ KCI LANDON MARTIN J officer (Vice President and CFO) 20,000 $37.00 $740,000.00 51,803 -9.03% view
S 2006-12-01 2006-12-01 17:23:54.0 KINETIC CONCEPTS INC /TX/ KCI WARE DENNERT O director 150,000 $35.69 $5,353,500.00 776,772 -10.82% view
S 2006-11-29 2006-12-01 17:23:54.0 KINETIC CONCEPTS INC /TX/ KCI WARE DENNERT O director 200,000 $35.63 $7,126,000.00 776,772 -11.00% view
S 2006-11-08 2006-11-08 20:21:49.0 KINETIC CONCEPTS INC /TX/ KCI WARE DENNERT O director 11,000 $33.80 $371,800.00 976,772 -15.89% view
S 2006-11-07 2006-11-08 20:21:49.0 KINETIC CONCEPTS INC /TX/ KCI WARE DENNERT O director 88,100 $33.86 $2,983,070.00 987,772 -16.75% view
S 2006-11-06 2006-11-08 20:21:49.0 KINETIC CONCEPTS INC /TX/ KCI WARE DENNERT O director 100,900 $34.12 $3,442,710.00 1,075,870 -15.15% view
S 2006-11-01 2006-11-03 15:32:04.0 KINETIC CONCEPTS INC /TX/ KCI LANDON MARTIN J officer (Vice President and CFO) 30,000 $34.58 $1,037,400.00 51,803 -3.67% view
S 2006-10-31 2006-11-02 17:31:40.0 KINETIC CONCEPTS INC /TX/ KCI RUSH G FREDERICK officer (Retired V.P. Corp. Dev.) 100,000 $34.75 $3,475,000.00 180,898 -4.46% view
S 2006-11-01 2006-11-02 16:22:40.0 KINETIC CONCEPTS INC /TX/ KCI WARE DENNERT O director officer (Director, President and CEO) 300,000 $34.58 $1.0374E7 1,176,770 -3.67% view
S 2006-10-31 2006-11-02 16:22:00.0 KINETIC CONCEPTS INC /TX/ KCI Sly Lynne officer (President, Thera. Surfaces) 35,000 $34.76 $1,216,600.00 8,112 -4.43% view
S 2006-08-31 2006-09-07 11:53:09.0 KINETIC CONCEPTS INC /TX/ KCI MENTEN JORG W officer (President, KCI International) 24,423 $31.04 $758,090.00 48,203 -1.35% view
S 2006-08-30 2006-09-01 16:39:49.0 KINETIC CONCEPTS INC /TX/ KCI WARE DENNERT O director officer (Director, President and CEO) 300,000 $31.12 $9,336,000.00 988,729 -1.09% view
P 2006-08-11 2006-08-15 19:08:37.0 KINETIC CONCEPTS INC /TX/ KCI SMITH TOM director 5,000 $27.86 $139,300.00 20,772 5.96% view
S 2006-05-12 2006-05-16 11:27:38.0 KINETIC CONCEPTS INC /TX/ KCI MENTEN JORG W officer (President, KCI International) 9,325 $40.32 $375,984.00 22,626 -4.54% view
S 2006-05-09 2006-05-11 11:33:50.0 KINETIC CONCEPTS INC /TX/ KCI LANDON MARTIN J officer (Vice President and CFO) 10,000 $41.67 $416,700.00 44,568 0.50% view
S 2006-04-03 2006-04-05 16:00:16.0 KINETIC CONCEPTS INC /TX/ KCI WARE DENNERT O director officer (Director, President and CEO) 200,000 $41.16 $8,232,000.00 751,377 -2.02% view
S 2006-02-27 2006-03-01 11:26:37.0 KINETIC CONCEPTS INC /TX/ KCI LANDON MARTIN J officer (Vice President and CFO) 4,000 $38.00 $152,000.00 22,961 -4.47% view
S 2006-02-09 2006-02-10 17:15:12.0 KINETIC CONCEPTS INC /TX/ KCI WARE DENNERT O director officer (Director, President and CEO) 100,000 $38.06 $3,806,000.00 103,385 0.55% view
S 2006-02-08 2006-02-10 17:15:12.0 KINETIC CONCEPTS INC /TX/ KCI WARE DENNERT O director officer (Director, President and CEO) 100,000 $38.14 $3,814,000.00 103,385 0.31% view
S 2005-11-16 2005-11-18 16:18:45.0 KINETIC CONCEPTS INC /TX/ KCI WARE DENNERT O director officer (Director, President and CEO) 170,000 $39.72 $6,752,400.00 230,101 5.16% view
P 2005-11-04 2005-11-07 12:34:35.0 KINETIC CONCEPTS INC /TX/ KCI Cashman Christopher M officer (President, Thera. Surfaces) 2,500 $37.64 $94,100.00 12,500 6.00% view
S 2005-08-31 2005-08-31 18:44:51.0 KINETIC CONCEPTS INC /TX/ KCI LEININGER JAMES R MD director 10% owner 46,700 $54.59 $2,549,350.00 1.23116E7 -4.05% view
S 2005-08-30 2005-08-31 18:44:51.0 KINETIC CONCEPTS INC /TX/ KCI LEININGER JAMES R MD director 10% owner 53,300 $55.19 $2,941,630.00 1.23583E7 -2.92% view
S 2005-08-29 2005-08-31 18:44:51.0 KINETIC CONCEPTS INC /TX/ KCI LEININGER JAMES R MD director 10% owner 25,600 $57.00 $1,459,200.00 1.24116E7 0.53% view
S 2005-05-25 2005-05-26 12:36:17.0 KINETIC CONCEPTS INC /TX/ KCI MENTEN JORG W officer (President, KCI International) 30,000 $64.01 $1,920,300.00 8,051 2.67% view
S 2005-05-18 2005-05-20 13:19:55.0 KINETIC CONCEPTS INC /TX/ KCI FASHEK CHRISTOPHER M officer (President, KCI USA) 80,000 $64.04 $5,123,200.00 41,522 7.67% view
S 2005-02-22 2005-02-24 13:08:19.0 KINETIC CONCEPTS INC /TX/ KCI FASHEK CHRISTOPHER M officer (President, KCI USA) 75,000 $67.17 $5,037,750.00 39,272 12.54% view
S 2005-02-22 2005-02-24 13:08:19.0 KINETIC CONCEPTS INC /TX/ KCI LANDON MARTIN J officer (Vice President and CFO) 36,000 $67.17 $2,418,120.00 20,711 12.54% view
S 2005-02-23 2005-02-24 13:08:19.0 KINETIC CONCEPTS INC /TX/ KCI MENTEN JORG W officer (President, KCI International) 15,000 $66.71 $1,000,650.00 5,801 13.21% view
S 2005-02-22 2005-02-24 13:07:48.0 KINETIC CONCEPTS INC /TX/ KCI NOLL DENNIS E officer (Sr. VP, Gen. Counsel and Sec.) 32,000 $67.17 $2,149,440.00 3,830 12.54% view
S 2005-02-11 2005-02-14 15:13:24.0 KINETIC CONCEPTS INC /TX/ KCI JACOBSON HARRY R director 10,000 $63.16 $631,600.00 33,361 -1.50% view
S 2005-01-28 2005-01-31 15:16:41.0 KINETIC CONCEPTS INC /TX/ KCI STEEN DONALD E director 22,100 $64.00 $1,414,400.00 35,506 -1.92% view
S 2005-01-27 2005-01-31 15:16:41.0 KINETIC CONCEPTS INC /TX/ KCI STEEN DONALD E director 6,800 $65.00 $442,000.00 35,506 -0.54% view
S 2004-11-11 2004-11-15 16:34:35.0 KINETIC CONCEPTS INC /TX/ KCI FASHEK CHRISTOPHER M officer (President, KCI USA) 75,000 $60.50 $4,537,500.00 39,272 -15.07% view
S 2004-11-11 2004-11-15 16:34:35.0 KINETIC CONCEPTS INC /TX/ KCI NOLL DENNIS E officer (Sr. VP, Gen. Counsel and Sec.) 62,946 $60.50 $3,808,230.00 3,830 -15.07% view
S 2004-11-11 2004-11-15 16:34:35.0 KINETIC CONCEPTS INC /TX/ KCI LANDON MARTIN J officer (Vice President and CFO) 24,857 $60.50 $1,503,850.00 20,711 -15.07% view
S 2004-06-22 2004-06-22 18:14:09.0 KINETIC CONCEPTS INC /TX/ KCI BLUM RICHARD C various various various 10% owner 3,833 $47.50 $182,068.00 4,512 0.00% view
S 2004-06-22 2004-06-22 18:14:09.0 KINETIC CONCEPTS INC /TX/ KCI BLUM RICHARD C various various various 10% owner 185,739 $47.50 $8,822,600.00 218,686 0.00% view
S 2004-06-22 2004-06-22 18:14:09.0 KINETIC CONCEPTS INC /TX/ KCI BLUM RICHARD C various various various 10% owner 3,678,050 $47.50 $1.74707008E8 4,330,480 0.00% view
S 2004-06-22 2004-06-22 18:14:09.0 KINETIC CONCEPTS INC /TX/ KCI BLUM RICHARD C various various various 10% owner 228,157 $47.50 $1.08375E7 268,630 0.00% view
S 2004-06-22 2004-06-22 11:38:08.0 KINETIC CONCEPTS INC /TX/ KCI FREMONT INVESTORS INC 10% owner 45,094 $47.50 $2,141,960.00 53,092 0.00% view
S 2004-06-22 2004-06-22 11:38:08.0 KINETIC CONCEPTS INC /TX/ KCI FREMONT INVESTORS INC 10% owner 991,060 $47.50 $4.70754E7 1,166,860 0.00% view
S 2004-06-22 2004-06-22 11:38:08.0 KINETIC CONCEPTS INC /TX/ KCI FREMONT INVESTORS INC 10% owner 605,137 $47.50 $2.8744E7 712,480 0.00% view
S 2004-06-22 2004-06-22 11:38:08.0 KINETIC CONCEPTS INC /TX/ KCI FREMONT INVESTORS INC 10% owner 944,867 $47.50 $4.48812E7 1,112,470 0.00% view
S 2004-06-22 2004-06-22 11:38:08.0 KINETIC CONCEPTS INC /TX/ KCI FREMONT INVESTORS INC 10% owner 706,961 $47.50 $3.35806E7 832,364 0.00% view
S 2004-06-22 2004-06-22 11:38:08.0 KINETIC CONCEPTS INC /TX/ KCI FREMONT INVESTORS INC 10% owner 2,906,900 $47.50 $1.38078E8 3,422,540 0.00% view
S 2004-06-17 2004-06-21 12:55:55.0 KINETIC CONCEPTS INC /TX/ KCI LEININGER JAMES R MD director 10% owner 1,514,640 $47.50 $7.1945504E7 1.27852E7 -1.77% view
S 2004-06-17 2004-06-21 12:54:54.0 KINETIC CONCEPTS INC /TX/ KCI MENTEN JORG W officer (President, KCI International) 29,793 $47.50 $1,415,170.00 5,801 -1.77% view
S 2004-06-17 2004-06-21 12:52:52.0 KINETIC CONCEPTS INC /TX/ KCI LANDON MARTIN J officer (Vice President and CFO) 43,920 $47.50 $2,086,200.00 11,211 -1.77% view
S 2004-06-17 2004-06-21 12:51:51.0 KINETIC CONCEPTS INC /TX/ KCI FASHEK CHRISTOPHER M officer (President, KCI USA) 230,000 $47.50 $1.0925E7 39,272 -1.77% view
S 2004-06-17 2004-06-21 12:50:34.0 KINETIC CONCEPTS INC /TX/ KCI NOLL DENNIS E officer (Sr. VP, Gen. Counsel and Sec.) 136,986 $47.50 $6,506,840.00 27,630 -1.77% view
S 2004-06-17 2004-06-21 12:49:32.0 KINETIC CONCEPTS INC /TX/ KCI WARE DENNERT O director officer (Director, President and CEO) 402,300 $47.50 $1.91092E7 101 -1.77% view
S 2004-06-17 2004-06-21 12:48:13.0 KINETIC CONCEPTS INC /TX/ KCI STEEN DONALD E director 33,900 $47.50 $1,610,250.00 34,536 -1.77% view
* An * after P or S in the Buy/Sell column means the transaction was filed by the insider as open market, but it was marked as private transaction by insidercow's proprietary method
Enter Another Stock Symbol: